Time;durP1;ratioP1;P1;durP2;ratioP2;P2;SDS_P1;SDS_P2;PMS_P1;PMS_P2;Temp;Humidity;BMP_temperature;BMP_pressure;BME280_temperature;BME280_humidity;BME280_pressure;Samples;Min_cycle;Max_cycle;Signal;HPM_P1;HPM_P2
2022/05/01 00:01:24;;;;;;;16.33;12.00;;;6.70;99.90;;;;;;5031196;28;20041;-72
2022/05/01 00:03:50;;;;;;;17.23;12.57;;;6.70;99.90;;;;;;5030372;28;20554;-72
2022/05/01 00:06:15;;;;;;;18.92;14.13;;;6.70;99.90;;;;;;5031403;28;20083;-72
2022/05/01 00:08:42;;;;;;;17.73;13.93;;;6.60;99.90;;;;;;5030144;28;20038;-73
2022/05/01 00:11:08;;;;;;;18.55;13.23;;;6.60;99.90;;;;;;5030188;28;20049;-73
2022/05/01 00:13:35;;;;;;;17.55;13.43;;;6.60;99.90;;;;;;5030266;28;20042;-73
2022/05/01 00:16:01;;;;;;;17.83;14.30;;;6.60;99.90;;;;;;5030320;28;20395;-72
2022/05/01 00:18:26;;;;;;;20.77;15.13;;;6.60;99.90;;;;;;5030154;28;20112;-73
2022/05/01 00:20:52;;;;;;;21.58;16.30;;;6.60;99.90;;;;;;5029612;28;20617;-73
2022/05/01 00:23:19;;;;;;;23.05;14.93;;;6.50;99.90;;;;;;5030095;28;20057;-73
2022/05/01 00:25:45;;;;;;;19.15;15.23;;;6.50;99.90;;;;;;5029959;28;20079;-73
2022/05/01 00:28:12;;;;;;;18.45;14.98;;;6.50;99.90;;;;;;5030170;28;20121;-73
2022/05/01 00:30:38;;;;;;;16.88;13.75;;;6.50;99.90;;;;;;5013524;28;20127;-73
2022/05/01 00:38:33;;;;;;;20.05;14.10;;;6.20;99.90;;;;;;5029958;28;20045;-73
2022/05/01 00:40:58;;;;;;;19.05;14.30;;;6.30;99.90;;;;;;5032709;28;20124;-73
2022/05/01 00:43:24;;;;;;;17.60;13.52;;;6.30;99.90;;;;;;5033563;28;20103;-73
2022/05/01 00:45:50;;;;;;;13.50;11.45;;;6.30;99.90;;;;;;5034837;28;20037;-73
2022/05/01 00:48:15;;;;;;;13.15;11.70;;;6.20;99.90;;;;;;5034718;28;20060;-73
2022/05/01 00:50:43;;;;;;;15.48;11.57;;;6.10;99.90;;;;;;5033582;28;20044;-73
2022/05/01 00:53:09;;;;;;;15.35;11.43;;;6.10;99.90;;;;;;5034892;28;20037;-73
2022/05/01 00:55:36;;;;;;;14.80;11.82;;;6.10;99.90;;;;;;5034834;28;20094;-73
2022/05/01 00:58:07;;;;;;;15.93;12.20;;;6.00;99.90;;;;;;5033570;28;20459;-73
2022/05/01 01:00:33;;;;;;;18.63;13.52;;;6.00;99.90;;;;;;5033330;28;20553;-73
2022/05/01 01:02:59;;;;;;;18.02;13.48;;;5.90;99.90;;;;;;5033523;28;20409;-73
2022/05/01 01:05:25;;;;;;;20.13;12.65;;;5.90;99.90;;;;;;5033233;28;20132;-73
2022/05/01 01:07:51;;;;;;;14.60;12.57;;;5.90;99.90;;;;;;5034553;28;20120;-73
2022/05/01 01:10:17;;;;;;;22.65;15.18;;;5.90;99.90;;;;;;5016484;28;20033;-73
2022/05/01 01:12:54;;;;;;;16.83;13.13;;;5.90;99.90;;;;;;5034405;28;20037;-73
2022/05/01 01:15:22;;;;;;;17.40;13.80;;;5.80;99.90;;;;;;5033080;28;20041;-73
2022/05/01 01:17:52;;;;;;;18.48;13.60;;;5.80;99.90;;;;;;5033086;28;20077;-73
2022/05/01 01:20:31;;;;;;;16.80;13.45;;;5.70;99.90;;;;;;5016192;28;20033;-73
2022/05/01 01:22:59;;;;;;;23.58;14.82;;;5.80;99.90;;;;;;5033052;28;20052;-73
2022/05/01 01:25:31;;;;;;;17.48;13.80;;;5.70;99.90;;;;;;5032796;28;20042;-72
2022/05/01 01:28:02;;;;;;;16.80;13.10;;;5.70;99.90;;;;;;5034029;28;20037;-73
2022/05/01 01:33:15;;;;;;;17.98;14.20;;;5.70;99.90;;;;;;5032846;28;20069;-73
2022/05/01 01:35:41;;;;;;;15.52;13.23;;;5.70;99.90;;;;;;5016192;28;20045;-73
2022/05/01 01:38:07;;;;;;;15.65;12.60;;;5.60;99.90;;;;;;5032603;28;20049;-73
2022/05/01 01:40:46;;;;;;;18.50;13.70;;;5.60;99.90;;;;;;5032313;28;20041;-73
2022/05/01 01:43:13;;;;;;;17.15;14.27;;;5.60;99.90;;;;;;5016084;28;20038;-72
2022/05/01 01:45:38;;;;;;;14.30;12.25;;;5.50;99.90;;;;;;5033789;28;20132;-73
2022/05/01 01:48:12;;;;;;;14.27;11.65;;;5.50;99.90;;;;;;5032376;28;20120;-73
2022/05/01 01:50:37;;;;;;;14.40;12.30;;;5.50;99.90;;;;;;5032171;28;20099;-73
2022/05/01 01:53:03;;;;;;;14.25;12.35;;;5.40;99.90;;;;;;5033862;28;20434;-73
2022/05/01 01:55:33;;;;;;;17.42;14.35;;;5.40;99.90;;;;;;5033773;28;20040;-73
2022/05/01 01:57:58;;;;;;;15.50;13.80;;;5.40;99.90;;;;;;5032448;28;20386;-73
2022/05/01 02:00:25;;;;;;;16.75;13.43;;;5.30;99.90;;;;;;5032073;28;20197;-73
2022/05/01 02:02:58;;;;;;;19.42;14.57;;;5.30;99.90;;;;;;5032197;28;20037;-73
2022/05/01 02:05:24;;;;;;;18.67;15.48;;;5.40;99.90;;;;;;5032230;28;20092;-73
2022/05/01 02:07:50;;;;;;;20.35;15.70;;;5.30;99.90;;;;;;5032117;28;20077;-73
2022/05/01 02:10:15;;;;;;;18.90;15.10;;;5.40;99.90;;;;;;5033194;28;20042;-73
2022/05/01 02:12:41;;;;;;;18.77;14.43;;;5.30;99.90;;;;;;5032068;28;20053;-73
2022/05/01 02:15:07;;;;;;;19.00;14.52;;;5.30;99.90;;;;;;5033306;28;20037;-73
2022/05/01 02:17:33;;;;;;;20.58;14.13;;;5.30;99.90;;;;;;5033123;28;20049;-73
2022/05/01 02:19:59;;;;;;;25.83;15.65;;;5.30;99.90;;;;;;5031890;28;20042;-73
2022/05/01 02:22:25;;;;;;;18.38;15.55;;;5.30;99.90;;;;;;5031944;28;20060;-73
2022/05/01 02:24:50;;;;;;;19.45;14.23;;;5.30;99.90;;;;;;5031775;28;20107;-73
2022/05/01 02:27:17;;;;;;;21.58;15.40;;;5.30;99.90;;;;;;5031661;28;20431;-73
2022/05/01 02:29:44;;;;;;;17.77;14.65;;;5.30;99.90;;;;;;5015267;28;20047;-73
2022/05/01 02:32:10;;;;;;;17.65;14.40;;;5.20;99.90;;;;;;5031408;28;20116;-73
2022/05/01 02:34:35;;;;;;;20.02;15.15;;;5.20;99.90;;;;;;5031885;28;20192;-72
2022/05/01 02:37:01;;;;;;;18.90;14.18;;;5.20;99.90;;;;;;5031575;28;20048;-72
2022/05/01 02:39:26;;;;;;;19.40;14.45;;;5.20;99.90;;;;;;5031649;28;20119;-73
2022/05/01 02:41:52;;;;;;;17.80;14.25;;;5.20;99.90;;;;;;5031163;28;20095;-72
2022/05/01 02:44:17;;;;;;;20.60;15.18;;;5.20;99.90;;;;;;5032680;28;20129;-72
2022/05/01 02:46:43;;;;;;;20.20;15.10;;;5.20;99.90;;;;;;5032501;28;20084;-72
2022/05/01 02:49:10;;;;;;;21.02;14.90;;;5.20;99.90;;;;;;5031420;28;20045;-72
2022/05/01 02:51:36;;;;;;;18.23;14.95;;;5.10;99.90;;;;;;5030950;28;20083;-73
2022/05/01 02:54:04;;;;;;;19.73;14.63;;;5.10;99.90;;;;;;5031392;28;20071;-73
2022/05/01 02:56:30;;;;;;;22.65;14.90;;;5.00;99.90;;;;;;5031356;28;20688;-72
2022/05/01 02:58:57;;;;;;;25.05;17.30;;;5.00;99.90;;;;;;5032487;28;20049;-73
2022/05/01 03:01:23;;;;;;;25.30;17.33;;;4.90;99.90;;;;;;5030871;28;20510;-73
2022/05/01 03:03:49;;;;;;;22.30;16.98;;;4.90;99.90;;;;;;5030785;28;20515;-73
2022/05/01 03:06:15;;;;;;;23.67;17.35;;;4.80;99.90;;;;;;5032345;28;20123;-73
2022/05/01 03:08:41;;;;;;;24.23;16.55;;;4.80;99.90;;;;;;5032292;28;20088;-72
2022/05/01 03:11:07;;;;;;;22.67;16.35;;;4.80;99.90;;;;;;5030584;28;20041;-72
2022/05/01 03:13:32;;;;;;;21.40;15.82;;;4.80;99.90;;;;;;5032424;28;20041;-72
2022/05/01 03:15:58;;;;;;;22.15;16.40;;;4.80;99.90;;;;;;5031354;28;20049;-73
2022/05/01 03:23:52;;;;;;;21.55;15.85;;;4.80;99.90;;;;;;5030802;28;20042;-73
2022/05/01 03:26:18;;;;;;;20.42;14.48;;;4.80;99.90;;;;;;5030933;28;20042;-73
2022/05/01 03:28:47;;;;;;;18.52;14.93;;;4.90;99.90;;;;;;5030576;28;20041;-73
2022/05/01 03:31:14;;;;;;;18.42;14.15;;;4.80;99.90;;;;;;5031749;28;20086;-73
2022/05/01 03:33:39;;;;;;;17.67;14.02;;;4.80;99.90;;;;;;5030695;28;20511;-73
2022/05/01 03:36:06;;;;;;;17.80;13.10;;;4.80;99.90;;;;;;5031898;28;20044;-72
2022/05/01 03:38:37;;;;;;;16.95;13.25;;;4.80;99.90;;;;;;5014111;28;20037;-73
2022/05/01 03:41:07;;;;;;;15.70;13.10;;;4.80;99.90;;;;;;5030412;28;20037;-73
2022/05/01 03:43:34;;;;;;;16.15;12.05;;;4.80;99.90;;;;;;5030585;28;20073;-72
2022/05/01 03:46:00;;;;;;;15.60;12.90;;;4.80;99.90;;;;;;5031631;28;20419;-72
2022/05/01 03:48:27;;;;;;;14.45;12.27;;;4.70;99.90;;;;;;5031724;28;20403;-72
2022/05/01 03:50:53;;;;;;;15.52;12.77;;;4.80;99.90;;;;;;5030062;28;20041;-72
2022/05/01 03:53:23;;;;;;;16.05;12.35;;;4.70;99.90;;;;;;5030383;28;20077;-73
2022/05/01 03:55:49;;;;;;;16.15;12.88;;;4.70;99.90;;;;;;5030529;28;20041;-73
2022/05/01 03:58:14;;;;;;;16.10;13.00;;;4.70;99.90;;;;;;5030536;28;20034;-73
2022/05/01 04:00:44;;;;;;;15.52;12.73;;;4.70;99.90;;;;;;5030066;28;20052;-73
2022/05/01 04:03:11;;;;;;;15.18;12.40;;;4.70;99.90;;;;;;5013970;28;20056;-73
2022/05/01 04:05:36;;;;;;;14.80;12.40;;;4.60;99.90;;;;;;5030133;28;20083;-73
2022/05/01 04:08:02;;;;;;;16.52;13.18;;;4.60;99.90;;;;;;5029959;28;20072;-73
2022/05/01 04:10:28;;;;;;;17.05;12.90;;;4.50;99.90;;;;;;5031408;28;20037;-73
2022/05/01 04:12:54;;;;;;;12.65;11.18;;;4.50;99.90;;;;;;5030287;28;20057;-73
2022/05/01 04:15:19;;;;;;;12.32;10.50;;;4.40;99.90;;;;;;5033751;28;20080;-73
2022/05/01 04:17:45;;;;;;;11.70;10.18;;;4.40;99.90;;;;;;5034182;28;20515;-73
2022/05/01 04:20:13;;;;;;;10.68;9.52;;;4.30;99.90;;;;;;5033905;28;20045;-73
2022/05/01 04:22:44;;;;;;;11.25;10.05;;;4.30;99.90;;;;;;5017896;28;20041;-73
2022/05/01 04:25:16;;;;;;;11.55;10.07;;;4.30;99.90;;;;;;5034051;28;20058;-73
2022/05/01 04:27:43;;;;;;;10.85;9.75;;;4.20;99.90;;;;;;5017461;28;20045;-73
2022/05/01 04:30:10;;;;;;;10.63;9.35;;;4.30;99.90;;;;;;5033681;28;20041;-73
2022/05/01 04:33:01;;;;;;;13.38;10.82;;;4.30;99.90;;;;;;5034000;28;20130;-72
2022/05/01 04:35:29;;;;;;;11.55;10.35;;;4.40;99.90;;;;;;5033925;28;20076;-72
2022/05/01 04:37:59;;;;;;;13.50;10.85;;;4.40;99.90;;;;;;5033742;28;20514;-73
2022/05/01 04:40:26;;;;;;;12.43;11.07;;;4.50;99.90;;;;;;5032955;28;20045;-73
2022/05/01 04:42:52;;;;;;;12.32;10.88;;;4.50;99.90;;;;;;5033781;28;20042;-72
2022/05/01 04:45:18;;;;;;;13.93;11.25;;;4.60;99.90;;;;;;5017038;28;20045;-73
2022/05/01 04:47:45;;;;;;;13.45;11.45;;;4.60;99.90;;;;;;5033522;28;20033;-72
2022/05/01 04:50:11;;;;;;;14.75;11.82;;;4.70;99.90;;;;;;5033530;28;20033;-73
2022/05/01 04:52:38;;;;;;;14.23;11.63;;;4.80;99.90;;;;;;5034927;28;20047;-73
2022/05/01 04:55:05;;;;;;;13.50;11.55;;;4.90;99.90;;;;;;5033646;28;20045;-73
2022/05/01 04:57:31;;;;;;;16.67;12.38;;;5.00;99.90;;;;;;5033614;28;20049;-73
2022/05/01 04:59:57;;;;;;;13.23;11.65;;;5.10;99.90;;;;;;5033161;28;20049;-73
2022/05/01 05:02:23;;;;;;;13.68;11.40;;;5.30;99.90;;;;;;5033418;28;20183;-73
2022/05/01 05:04:49;;;;;;;14.52;11.07;;;5.50;99.90;;;;;;5033314;28;20073;-73
2022/05/01 05:07:15;;;;;;;19.40;12.45;;;5.70;99.90;;;;;;5033462;28;20029;-73
2022/05/01 05:09:55;;;;;;;15.07;12.00;;;5.90;99.90;;;;;;5033378;28;20037;-73
2022/05/01 05:12:22;;;;;;;14.27;11.75;;;6.20;99.90;;;;;;5033142;28;20037;-73
2022/05/01 05:14:51;;;;;;;16.73;14.13;;;6.40;99.90;;;;;;5033162;28;20041;-73
2022/05/01 05:17:18;;;;;;;15.93;12.93;;;6.60;99.90;;;;;;5033337;28;20467;-73
2022/05/01 05:19:45;;;;;;;18.00;13.80;;;6.90;99.90;;;;;;5034350;28;20049;-73
2022/05/01 05:22:10;;;;;;;19.25;15.05;;;7.10;99.90;;;;;;5034065;28;20041;-73
2022/05/01 05:24:36;;;;;;;22.23;16.35;;;7.30;99.90;;;;;;5034185;28;20041;-73
2022/05/01 05:27:01;;;;;;;19.15;16.30;;;7.30;99.90;;;;;;5055383;22;20168;-69
2022/05/01 05:29:27;;;;;;;17.48;14.13;;;7.50;99.90;;;;;;5014581;28;20128;-69
2022/05/01 05:31:53;;;;;;;18.50;14.60;;;7.70;99.90;;;;;;5013883;28;20121;-67
2022/05/01 05:34:18;;;;;;;18.45;14.85;;;7.90;99.90;;;;;;5014469;28;20168;-67
2022/05/01 05:36:44;;;;;;;17.00;13.93;;;8.20;99.90;;;;;;5013877;28;20046;-67
2022/05/01 05:39:09;;;;;;;17.13;13.35;;;8.50;99.90;;;;;;5014278;28;20224;-67
2022/05/01 05:41:35;;;;;;;17.00;14.10;;;8.70;99.90;;;;;;5013971;28;20034;-67
2022/05/01 05:44:01;;;;;;;17.13;13.63;;;8.90;99.90;;;;;;5014315;28;20088;-67
2022/05/01 05:46:26;;;;;;;17.35;13.75;;;8.90;99.90;;;;;;5014361;28;20074;-67
2022/05/01 05:48:52;;;;;;;16.60;13.88;;;9.10;99.90;;;;;;5014229;28;20071;-67
2022/05/01 05:51:17;;;;;;;15.98;13.77;;;9.20;99.90;;;;;;5013887;28;20041;-68
2022/05/01 05:53:43;;;;;;;15.15;13.48;;;9.50;99.90;;;;;;5013996;28;20454;-67
2022/05/01 05:56:09;;;;;;;15.25;12.65;;;9.80;99.90;;;;;;5012599;28;20037;-67
2022/05/01 05:58:34;;;;;;;14.10;12.38;;;10.00;99.90;;;;;;5014051;28;20034;-67
2022/05/01 06:01:00;;;;;;;15.77;12.63;;;10.20;99.90;;;;;;5013815;28;20165;-67
2022/05/01 06:03:25;;;;;;;18.92;13.43;;;10.40;99.90;;;;;;5013977;28;20041;-67
2022/05/01 06:05:51;;;;;;;15.60;13.25;;;10.40;99.90;;;;;;5013811;28;20042;-67
2022/05/01 06:08:17;;;;;;;16.08;12.10;;;10.60;99.90;;;;;;5013679;28;20120;-67
2022/05/01 06:10:42;;;;;;;17.13;12.60;;;10.90;99.90;;;;;;5013406;28;20045;-67
2022/05/01 06:13:08;;;;;;;13.80;11.77;;;11.20;99.90;;;;;;5013523;28;20495;-67
2022/05/01 06:15:34;;;;;;;15.63;11.45;;;11.30;99.90;;;;;;5013816;28;20042;-67
2022/05/01 06:17:59;;;;;;;14.27;11.23;;;11.10;99.90;;;;;;5013587;28;20042;-67
2022/05/01 06:20:26;;;;;;;14.60;11.50;;;11.30;99.90;;;;;;5013359;28;20045;-67
2022/05/01 06:22:52;;;;;;;14.25;11.35;;;11.10;99.90;;;;;;5013456;28;20092;-67
2022/05/01 06:25:18;;;;;;;13.10;11.13;;;11.30;99.90;;;;;;5012111;28;20041;-67
2022/05/01 06:27:43;;;;;;;15.63;12.85;;;11.30;99.90;;;;;;5013293;28;20034;-67
2022/05/01 06:30:12;;;;;;;13.80;11.50;;;11.40;99.90;;;;;;5013264;28;20034;-67
2022/05/01 06:32:39;;;;;;;12.82;10.85;;;11.90;99.90;;;;;;5013462;28;20057;-69
2022/05/01 06:35:06;;;;;;;16.65;11.18;;;11.90;99.90;;;;;;5013296;28;20042;-69
2022/05/01 06:37:33;;;;;;;12.40;10.68;;;12.20;99.90;;;;;;5012408;28;20113;-68
2022/05/01 06:39:59;;;;;;;13.82;10.95;;;12.70;99.90;;;;;;5012613;28;20045;-67
2022/05/01 06:42:24;;;;;;;14.82;9.95;;;12.90;99.90;;;;;;5013318;28;20100;-67
2022/05/01 06:44:50;;;;;;;14.38;10.70;;;12.90;99.90;;;;;;5013029;28;20037;-68
2022/05/01 06:47:16;;;;;;;13.68;9.70;;;12.90;99.90;;;;;;5013070;28;20042;-68
2022/05/01 06:49:41;;;;;;;12.90;9.50;;;12.90;99.90;;;;;;5008400;28;20037;-66
2022/05/01 06:52:07;;;;;;;12.90;9.15;;;12.90;99.90;;;;;;5020415;28;20042;-66
2022/05/01 06:54:32;;;;;;;12.23;9.20;;;13.20;99.90;;;;;;5009974;28;20538;-67
2022/05/01 06:56:58;;;;;;;9.30;7.85;;;13.20;99.90;;;;;;5012651;28;20507;-67
2022/05/01 06:59:23;;;;;;;10.40;7.85;;;13.30;98.60;;;;;;5012781;28;20069;-67
2022/05/01 07:01:49;;;;;;;10.00;9.00;;;13.50;98.40;;;;;;5012288;28;20042;-67
2022/05/01 07:04:14;;;;;;;9.70;7.63;;;13.60;97.20;;;;;;5011539;28;20038;-67
2022/05/01 07:06:45;;;;;;;11.95;7.88;;;13.80;96.60;;;;;;5012464;28;20034;-68
2022/05/01 07:09:10;;;;;;;11.48;8.23;;;13.90;94.40;;;;;;5012241;28;20119;-67
2022/05/01 07:11:36;;;;;;;8.15;6.97;;;14.20;93.30;;;;;;5012172;28;20089;-67
2022/05/01 07:14:01;;;;;;;9.45;7.32;;;14.10;91.30;;;;;;5012532;28;20042;-67
2022/05/01 07:16:27;;;;;;;9.70;7.95;;;14.10;91.30;;;;;;5012235;28;20033;-67
2022/05/01 07:18:52;;;;;;;7.72;6.85;;;13.80;90.30;;;;;;5011004;28;20050;-68
2022/05/01 07:21:18;;;;;;;8.52;7.07;;;14.30;90.20;;;;;;5012043;28;20049;-67
2022/05/01 07:23:44;;;;;;;11.55;8.45;;;14.40;88.60;;;;;;5011943;28;20450;-67
2022/05/01 07:26:10;;;;;;;10.90;7.57;;;14.50;86.30;;;;;;5012407;28;20096;-67
2022/05/01 07:28:36;;;;;;;12.52;7.38;;;14.60;87.50;;;;;;5011953;28;20084;-68
2022/05/01 07:31:03;;;;;;;10.73;7.25;;;14.50;85.30;;;;;;5011926;28;20092;-67
2022/05/01 07:33:30;;;;;;;8.18;6.65;;;14.30;82.40;;;;;;5012090;28;20124;-67
2022/05/01 07:35:57;;;;;;;9.02;6.65;;;14.70;81.20;;;;;;5012088;28;20049;-67
2022/05/01 07:38:23;;;;;;;9.20;6.82;;;14.90;79.60;;;;;;5011848;28;20045;-68
2022/05/01 07:40:49;;;;;;;8.95;6.63;;;15.00;79.20;;;;;;5011919;28;20537;-67
2022/05/01 07:43:15;;;;;;;8.43;5.85;;;15.00;77.70;;;;;;5012097;28;20046;-69
2022/05/01 07:45:41;;;;;;;10.23;6.53;;;14.80;78.00;;;;;;5011782;28;20107;-67
2022/05/01 07:48:07;;;;;;;7.95;6.35;;;14.40;79.80;;;;;;5011772;28;20041;-67
2022/05/01 07:50:32;;;;;;;10.43;7.43;;;14.10;83.10;;;;;;5011465;28;20499;-67
2022/05/01 07:52:58;;;;;;;8.77;6.38;;;14.00;85.40;;;;;;5011639;28;20049;-67
2022/05/01 07:55:23;;;;;;;10.70;6.68;;;14.40;85.00;;;;;;5011862;28;20132;-67
2022/05/01 07:57:49;;;;;;;9.32;6.80;;;14.30;82.50;;;;;;5011887;28;20041;-68
2022/05/01 08:00:15;;;;;;;8.07;7.13;;;14.20;83.00;;;;;;5011295;28;20177;-67
2022/05/01 08:05:27;;;;;;;11.13;7.07;;;14.20;82.10;;;;;;5011517;28;20045;-67
2022/05/01 08:07:53;;;;;;;10.40;7.15;;;14.00;82.50;;;;;;5011756;28;20088;-68
2022/05/01 08:10:19;;;;;;;7.53;6.20;;;14.00;84.10;;;;;;5011706;28;20154;-66
2022/05/01 08:12:45;;;;;;;9.93;6.53;;;13.80;82.50;;;;;;5011741;28;20072;-67
2022/05/01 08:15:11;;;;;;;7.60;5.32;;;13.50;82.50;;;;;;5011789;28;20061;-67
2022/05/01 08:17:36;;;;;;;10.35;6.57;;;13.50;84.20;;;;;;5011366;28;20034;-67
2022/05/01 08:22:46;;;;;;;4.70;4.20;;;13.50;82.30;;;;;;5011664;28;20042;-67
2022/05/01 08:25:12;;;;;;;6.43;4.40;;;13.80;79.50;;;;;;5011508;28;20041;-67
2022/05/01 08:27:40;;;;;;;5.68;4.93;;;14.30;71.90;;;;;;5011218;28;20046;-66
2022/05/01 08:30:06;;;;;;;9.07;5.00;;;14.50;68.10;;;;;;5011127;28;20038;-66
2022/05/01 08:32:32;;;;;;;7.65;5.03;;;14.60;67.70;;;;;;5011296;28;20226;-66
2022/05/01 08:34:57;;;;;;;5.55;4.50;;;14.70;66.30;;;;;;5011318;28;20045;-67
2022/05/01 08:37:23;;;;;;;7.85;5.05;;;15.00;65.80;;;;;;5011271;28;20046;-66
2022/05/01 08:39:49;;;;;;;7.03;4.80;;;15.30;66.30;;;;;;5011304;28;20108;-67
2022/05/01 08:42:14;;;;;;;5.00;4.05;;;15.70;66.30;;;;;;5010871;28;20495;-67
2022/05/01 08:44:40;;;;;;;5.28;4.07;;;15.60;65.50;;;;;;5010967;28;20038;-67
2022/05/01 08:47:13;;;;;;;8.73;4.55;;;15.90;64.10;;;;;;5010963;28;20137;-66
2022/05/01 08:49:42;;;;;;;6.95;4.88;;;15.20;64.40;;;;;;5011140;28;20440;-66
2022/05/01 08:52:10;;;;;;;6.25;4.97;;;14.00;64.80;;;;;;5010977;28;20030;-66
2022/05/01 08:54:36;;;;;;;7.85;4.75;;;13.50;67.70;;;;;;5011012;28;20381;-66
2022/05/01 08:57:02;;;;;;;7.38;5.30;;;13.20;67.80;;;;;;5011086;28;20046;-66
2022/05/01 08:59:29;;;;;;;7.57;5.10;;;13.20;69.00;;;;;;5011081;28;20046;-66
2022/05/01 09:01:55;;;;;;;5.05;4.55;;;12.90;69.50;;;;;;5013441;28;20191;-67
2022/05/01 09:04:24;;;;;;;7.03;4.93;;;13.30;71.50;;;;;;5013471;28;20190;-68
2022/05/01 09:06:51;;;;;;;7.30;4.68;;;13.30;70.60;;;;;;5014615;28;20077;-68
2022/05/01 09:09:18;;;;;;;8.82;4.80;;;13.50;71.40;;;;;;5014707;28;20034;-68
2022/05/01 09:14:28;;;;;;;8.30;4.47;;;14.00;69.50;;;;;;5014699;28;20046;-68
2022/05/01 09:17:15;;;;;;;8.02;4.60;;;14.40;68.50;;;;;;5014533;28;20480;-69
2022/05/01 09:19:42;;;;;;;7.82;3.70;;;14.70;63.80;;;;;;5029908;28;20100;-69
2022/05/01 09:22:08;;;;;;;6.55;4.25;;;14.80;64.80;;;;;;5014070;28;20046;-69
2022/05/01 09:24:33;;;;;;;8.52;5.15;;;15.10;65.90;;;;;;5013759;28;20038;-69
2022/05/01 09:27:00;;;;;;;5.13;4.15;;;15.00;63.70;;;;;;5013645;28;20385;-68
2022/05/01 09:29:34;;;;;;;5.45;4.50;;;15.00;63.30;;;;;;5014318;28;20106;-69
2022/05/01 09:32:03;;;;;;;6.47;4.72;;;15.10;63.20;;;;;;5013747;28;20511;-68
2022/05/01 09:34:31;;;;;;;4.82;3.92;;;15.10;62.50;;;;;;5014086;28;20415;-68
2022/05/01 09:36:58;;;;;;;5.22;3.63;;;15.10;61.70;;;;;;5012688;28;20038;-69
2022/05/01 09:39:26;;;;;;;7.35;4.32;;;15.20;61.80;;;;;;5014225;28;20050;-68
2022/05/01 09:41:53;;;;;;;6.18;3.95;;;15.20;60.60;;;;;;5013777;28;20038;-69
2022/05/01 09:44:20;;;;;;;5.57;3.85;;;15.00;61.30;;;;;;5013876;28;20034;-68
2022/05/01 09:46:50;;;;;;;4.90;3.80;;;15.20;61.40;;;;;;5014157;28;20045;-68
2022/05/01 09:49:18;;;;;;;5.40;3.58;;;14.90;59.30;;;;;;5012701;28;20053;-69
2022/05/01 09:51:54;;;;;;;6.18;3.58;;;14.50;59.10;;;;;;5013312;28;20116;-69
2022/05/01 09:54:22;;;;;;;6.93;4.38;;;14.50;60.00;;;;;;5012396;28;20053;-68
2022/05/01 09:56:51;;;;;;;8.68;4.07;;;14.60;62.40;;;;;;5013883;28;20120;-69
2022/05/01 09:59:18;;;;;;;5.43;3.75;;;14.70;62.90;;;;;;5013660;28;20472;-69
2022/05/01 10:01:57;;;;;;;7.60;4.45;;;14.80;62.00;;;;;;5012959;28;20073;-69
2022/05/01 10:04:23;;;;;;;7.68;4.40;;;14.80;62.60;;;;;;5013923;28;20080;-68
2022/05/01 10:06:52;;;;;;;6.82;4.25;;;14.90;64.50;;;;;;5013721;28;20046;-69
2022/05/01 10:09:19;;;;;;;4.63;3.60;;;14.90;61.20;;;;;;5013695;28;20481;-69
2022/05/01 10:11:46;;;;;;;7.80;3.88;;;15.00;61.60;;;;;;5011027;28;20042;-69
2022/05/01 10:14:12;;;;;;;5.28;3.60;;;15.10;59.80;;;;;;5013062;28;20034;-69
2022/05/01 10:16:40;;;;;;;5.43;3.15;;;15.00;60.50;;;;;;5013279;28;20046;-68
2022/05/01 10:19:06;;;;;;;4.28;3.80;;;15.00;59.40;;;;;;5013280;28;20038;-69
2022/05/01 10:21:34;;;;;;;6.18;3.50;;;15.10;61.70;;;;;;5013070;28;20057;-69
2022/05/01 10:24:01;;;;;;;5.10;4.00;;;15.20;61.90;;;;;;5001935;28;20483;-69
2022/05/01 10:26:30;;;;;;;6.60;4.00;;;15.00;61.30;;;;;;5005551;28;20060;-68
2022/05/01 10:29:08;;;;;;;8.77;4.90;;;15.10;60.80;;;;;;4999389;28;20034;-68
2022/05/01 10:32:24;;;;;;;5.30;3.95;;;15.10;60.10;;;;;;5011165;28;20041;-68
2022/05/01 10:35:21;;;;;;;7.30;3.63;;;15.20;61.10;;;;;;5013069;28;20037;-68
2022/05/01 10:38:03;;;;;;;4.95;3.90;;;15.10;59.60;;;;;;5013074;28;20046;-68
2022/05/01 10:40:38;;;;;;;4.00;3.60;;;14.90;60.50;;;;;;5012738;28;20500;-68
2022/05/01 10:43:24;;;;;;;5.30;3.53;;;14.90;59.00;;;;;;5012893;28;20050;-68
2022/05/01 10:45:51;;;;;;;7.07;3.88;;;15.10;59.60;;;;;;5011466;28;20042;-68
2022/05/01 10:48:31;;;;;;;6.13;3.78;;;15.00;58.80;;;;;;5012871;28;20038;-68
2022/05/01 10:51:39;;;;;;;6.57;3.45;;;15.10;59.60;;;;;;5012730;28;20038;-68
2022/05/01 10:54:36;;;;;;;6.75;3.85;;;15.00;58.40;;;;;;5010218;28;20117;-68
2022/05/01 10:57:10;;;;;;;4.13;3.33;;;14.90;59.60;;;;;;4997127;28;20053;-68
2022/05/01 10:59:43;;;;;;;5.65;3.10;;;15.20;61.80;;;;;;5013163;28;20061;-68
2022/05/01 11:02:29;;;;;;;6.30;3.58;;;15.30;59.70;;;;;;5012925;28;20038;-68
2022/05/01 11:04:56;;;;;;;4.53;2.80;;;15.20;57.70;;;;;;5012892;28;20523;-68
2022/05/01 11:07:24;;;;;;;5.28;3.53;;;15.40;60.70;;;;;;5012326;28;20535;-68
2022/05/01 11:09:50;;;;;;;4.95;3.28;;;15.10;58.00;;;;;;5012593;28;20077;-68
2022/05/01 11:12:22;;;;;;;6.15;3.38;;;15.20;57.40;;;;;;5012346;28;20076;-70
2022/05/01 11:15:01;;;;;;;5.20;3.63;;;14.80;56.50;;;;;;5012369;28;20461;-69
2022/05/01 11:17:36;;;;;;;5.85;3.63;;;14.60;56.50;;;;;;5012525;28;20057;-67
2022/05/01 11:20:14;;;;;;;7.82;3.97;;;14.90;58.50;;;;;;5012160;28;20041;-67
2022/05/01 11:22:40;;;;;;;4.07;3.47;;;14.90;55.60;;;;;;5012291;28;20040;-68
2022/05/01 11:25:10;;;;;;;5.93;4.03;;;14.90;57.50;;;;;;5011993;28;20038;-67
2022/05/01 11:27:53;;;;;;;6.32;3.33;;;15.00;56.50;;;;;;5011852;28;20079;-68
2022/05/01 11:30:28;;;;;;;3.70;2.92;;;15.00;58.10;;;;;;5010638;28;20057;-67
2022/05/01 11:33:08;;;;;;;5.75;3.67;;;15.00;59.10;;;;;;5012078;28;20380;-67
2022/05/01 11:35:56;;;;;;;4.55;3.63;;;15.00;57.50;;;;;;5012199;28;20049;-68
2022/05/01 11:38:50;;;;;;;4.18;2.95;;;14.70;55.90;;;;;;5011700;28;20033;-67
2022/05/01 11:41:39;;;;;;;4.30;3.05;;;14.70;56.60;;;;;;4996005;28;20503;-68
2022/05/01 11:44:24;;;;;;;4.38;3.00;;;14.80;58.00;;;;;;5008848;28;20034;-69
2022/05/01 11:46:51;;;;;;;7.53;3.95;;;15.00;58.90;;;;;;5012372;28;20573;-68
2022/05/01 11:49:18;;;;;;;5.38;4.05;;;15.00;58.90;;;;;;5012240;28;20095;-68
2022/05/01 11:51:45;;;;;;;4.28;3.00;;;14.90;58.10;;;;;;5012048;28;20038;-67
2022/05/01 11:54:11;;;;;;;6.22;3.10;;;14.90;57.50;;;;;;5012144;28;20037;-68
2022/05/01 12:02:26;;;;;;;5.32;3.58;;;14.50;58.10;;;;;;5011748;28;20407;-68
2022/05/01 12:04:57;;;;;;;5.43;3.13;;;14.60;58.90;;;;;;5011880;28;20033;-67
2022/05/01 12:07:23;;;;;;;9.48;3.80;;;14.70;59.50;;;;;;5012099;28;20135;-67
2022/05/01 12:09:51;;;;;;;3.85;3.20;;;14.70;59.80;;;;;;5012170;28;20412;-68
2022/05/01 12:12:19;;;;;;;4.90;3.55;;;14.70;59.60;;;;;;5011847;28;20053;-68
2022/05/01 12:14:46;;;;;;;4.30;3.20;;;14.10;57.70;;;;;;5011841;28;20553;-68
2022/05/01 12:17:18;;;;;;;4.30;2.90;;;14.30;59.30;;;;;;5011873;28;20042;-68
2022/05/01 12:19:47;;;;;;;3.63;3.10;;;14.30;59.20;;;;;;5011664;28;20038;-68
2022/05/01 12:22:17;;;;;;;5.43;3.42;;;14.40;58.50;;;;;;5011513;28;20038;-68
2022/05/01 12:24:44;;;;;;;3.38;3.05;;;14.50;57.70;;;;;;5011883;28;20093;-68
2022/05/01 12:27:12;;;;;;;6.75;3.67;;;14.30;57.10;;;;;;5011901;28;20078;-68
2022/05/01 12:29:41;;;;;;;4.72;3.10;;;14.40;56.40;;;;;;5011812;28;20037;-68
2022/05/01 12:32:08;;;;;;;4.93;3.10;;;14.30;56.10;;;;;;5011496;28;20526;-68
2022/05/01 12:34:36;;;;;;;5.25;3.50;;;14.50;56.90;;;;;;5011771;28;20061;-67
2022/05/01 12:37:10;;;;;;;4.43;3.25;;;14.60;57.70;;;;;;5014996;28;20045;-68
2022/05/01 12:39:35;;;;;;;4.00;3.42;;;14.60;55.90;;;;;;5012851;28;20046;-68
2022/05/01 12:45:05;;;;;;;4.03;2.80;;;14.90;55.70;;;;;;5006546;28;20578;-68
2022/05/01 12:47:31;;;;;;;4.78;3.17;;;15.10;53.60;;;;;;5015195;28;20424;-68
2022/05/01 12:49:57;;;;;;;4.30;3.38;;;15.40;54.90;;;;;;5015128;28;20038;-68
2022/05/01 12:52:30;;;;;;;5.82;3.28;;;15.60;55.10;;;;;;5015267;28;20048;-68
2022/05/01 12:55:19;;;;;;;4.22;2.90;;;15.80;54.30;;;;;;5015083;28;20045;-68
2022/05/01 12:57:54;;;;;;;3.92;2.97;;;15.90;53.50;;;;;;5015191;28;20100;-68
2022/05/01 13:00:43;;;;;;;6.35;3.00;;;16.10;54.90;;;;;;5014931;28;20084;-66
2022/05/01 13:03:14;;;;;;;4.55;3.08;;;16.10;52.80;;;;;;5004231;28;20045;-68
2022/05/01 13:05:41;;;;;;;3.65;3.17;;;16.30;53.40;;;;;;5005935;28;20080;-68
2022/05/01 13:08:17;;;;;;;5.63;2.72;;;16.30;52.50;;;;;;5013430;28;20050;-68
2022/05/01 13:10:43;;;;;;;6.68;3.70;;;16.40;52.30;;;;;;5014715;28;20507;-68
2022/05/01 13:13:08;;;;;;;4.93;3.15;;;16.00;52.60;;;;;;5014968;28;20109;-68
2022/05/01 13:15:38;;;;;;;5.13;3.10;;;15.80;53.00;;;;;;5014918;28;20038;-69
2022/05/01 13:18:04;;;;;;;5.15;3.58;;;16.00;54.30;;;;;;5014624;28;20042;-68